Decoded Metar for OMFJ (FUJEIRAH in UNITED ARAB EMIRATES) (IATA:FJR) | Meteo·Mobile Aviation Weather
aviador You're here:

OMFJ Decoded Metar

FUJEIRAH in UNITED ARAB EMIRATES
Report Time2018-10-23 22:00:00
UTC Time2018-10-23 22:13:07
Flight Rules vfr VFR
Wind270° at 04 kt
W.Decomp.*RWY 29: 3.8 kt HW 1.4 kt LCW
W.Rank270° ranks 14
Current wind is below 270° avg. (7.7)
Visibility8000 m
Phenomena:N/A
Clouds:Few 020 Hf
Expected CloudBase > 4,000 ft AGL from Temp-Dew spread
CeilingNone
Temp30°C (ISA +15)
Dew Point20°C (55% RH)
Heat Index31.9°C
QNH1012 hPa
Density Alt2,175 ft
Elevation92 ft
Report Wrong Elevation
Raw Report
OMFJ 232200Z 27004KT 8000 FEW020 30/20 Q1012 A2989=

Extra information for OMFJ:More info

Metar Taf Metar & Taf Last 4 Metars F.Rules Stats Wind Profile Meteogram Temp Stats Airport Information Weather charts Add Link Nearby VenuesMetar ALERT Operation Metar Decoded Social comments